sensor_id;sensor_type;location;lat;lon;timestamp;pressure;altitude;pressure_sealevel;temperature;humidity
51439;BME280;38816;51.142;-0.974;2022-12-16T00:01:37;100019.19;;;-3.24;100.00
51439;BME280;38816;51.142;-0.974;2022-12-16T00:04:02;100018.09;;;-3.27;100.00
51439;BME280;38816;51.142;-0.974;2022-12-16T00:06:30;100017.25;;;-3.40;100.00
51439;BME280;38816;51.142;-0.974;2022-12-16T00:08:57;100020.66;;;-3.39;100.00
51439;BME280;38816;51.142;-0.974;2022-12-16T00:11:23;100024.03;;;-3.39;100.00
51439;BME280;38816;51.142;-0.974;2022-12-16T00:13:49;100022.28;;;-3.40;100.00
51439;BME280;38816;51.142;-0.974;2022-12-16T00:16:16;100014.53;;;-3.43;100.00
51439;BME280;38816;51.142;-0.974;2022-12-16T00:18:42;100018.28;;;-3.24;100.00
51439;BME280;38816;51.142;-0.974;2022-12-16T00:21:09;100013.88;;;-3.15;100.00
51439;BME280;38816;51.142;-0.974;2022-12-16T00:23:34;100017.47;;;-3.12;100.00
51439;BME280;38816;51.142;-0.974;2022-12-16T00:26:00;100019.50;;;-3.19;100.00
51439;BME280;38816;51.142;-0.974;2022-12-16T00:28:26;100021.16;;;-3.32;100.00
51439;BME280;38816;51.142;-0.974;2022-12-16T00:30:53;100021.50;;;-3.39;100.00
51439;BME280;38816;51.142;-0.974;2022-12-16T00:33:20;100012.78;;;-3.44;100.00
51439;BME280;38816;51.142;-0.974;2022-12-16T00:35:46;100020.88;;;-3.36;100.00
51439;BME280;38816;51.142;-0.974;2022-12-16T00:38:12;100024.34;;;-3.34;100.00
51439;BME280;38816;51.142;-0.974;2022-12-16T00:40:38;100020.00;;;-3.37;100.00
51439;BME280;38816;51.142;-0.974;2022-12-16T00:43:03;100024.41;;;-3.46;100.00
51439;BME280;38816;51.142;-0.974;2022-12-16T00:45:29;100020.25;;;-3.57;100.00
51439;BME280;38816;51.142;-0.974;2022-12-16T00:47:55;100022.78;;;-3.57;100.00
51439;BME280;38816;51.142;-0.974;2022-12-16T00:50:20;100013.28;;;-3.61;100.00
51439;BME280;38816;51.142;-0.974;2022-12-16T00:52:47;100001.41;;;-3.64;100.00
51439;BME280;38816;51.142;-0.974;2022-12-16T00:55:14;100014.28;;;-3.59;100.00
51439;BME280;38816;51.142;-0.974;2022-12-16T00:57:39;100013.28;;;-3.61;100.00
51439;BME280;38816;51.142;-0.974;2022-12-16T01:00:06;100006.13;;;-3.68;100.00
51439;BME280;38816;51.142;-0.974;2022-12-16T01:02:33;100021.50;;;-3.64;100.00
51439;BME280;38816;51.142;-0.974;2022-12-16T01:04:59;100021.91;;;-3.69;100.00
51439;BME280;38816;51.142;-0.974;2022-12-16T01:07:24;100025.56;;;-3.77;100.00
51439;BME280;38816;51.142;-0.974;2022-12-16T01:09:49;100025.44;;;-3.79;100.00
51439;BME280;38816;51.142;-0.974;2022-12-16T01:12:15;100030.38;;;-3.80;100.00
51439;BME280;38816;51.142;-0.974;2022-12-16T01:14:40;100022.63;;;-3.84;100.00
51439;BME280;38816;51.142;-0.974;2022-12-16T01:17:06;100021.66;;;-3.86;100.00
51439;BME280;38816;51.142;-0.974;2022-12-16T01:19:31;100033.44;;;-3.85;100.00
51439;BME280;38816;51.142;-0.974;2022-12-16T01:21:56;100030.59;;;-3.89;100.00
51439;BME280;38816;51.142;-0.974;2022-12-16T01:24:22;100039.63;;;-3.79;100.00
51439;BME280;38816;51.142;-0.974;2022-12-16T01:26:48;100036.81;;;-3.72;100.00
51439;BME280;38816;51.142;-0.974;2022-12-16T01:29:13;100039.94;;;-3.63;100.00
51439;BME280;38816;51.142;-0.974;2022-12-16T01:31:38;100032.50;;;-3.62;100.00
51439;BME280;38816;51.142;-0.974;2022-12-16T01:34:04;100037.38;;;-3.51;100.00
51439;BME280;38816;51.142;-0.974;2022-12-16T01:36:29;100045.59;;;-3.54;100.00
51439;BME280;38816;51.142;-0.974;2022-12-16T01:38:54;100052.91;;;-3.57;100.00
51439;BME280;38816;51.142;-0.974;2022-12-16T01:41:20;100052.28;;;-3.66;100.00
51439;BME280;38816;51.142;-0.974;2022-12-16T01:43:45;100070.22;;;-3.73;100.00
51439;BME280;38816;51.142;-0.974;2022-12-16T01:48:47;100069.00;;;-3.78;100.00
51439;BME280;38816;51.142;-0.974;2022-12-16T01:51:29;100064.88;;;-3.90;100.00
51439;BME280;38816;51.142;-0.974;2022-12-16T01:54:07;100070.88;;;-4.11;100.00
51439;BME280;38816;51.142;-0.974;2022-12-16T01:56:38;100082.53;;;-4.23;100.00
51439;BME280;38816;51.142;-0.974;2022-12-16T01:59:04;100092.25;;;-4.28;100.00
51439;BME280;38816;51.142;-0.974;2022-12-16T02:01:29;100092.94;;;-4.30;100.00
51439;BME280;38816;51.142;-0.974;2022-12-16T02:03:57;100083.53;;;-4.45;100.00
51439;BME280;38816;51.142;-0.974;2022-12-16T02:06:23;100093.88;;;-4.52;100.00
51439;BME280;38816;51.142;-0.974;2022-12-16T02:08:53;100093.84;;;-4.64;100.00
51439;BME280;38816;51.142;-0.974;2022-12-16T02:14:40;100104.47;;;-4.33;100.00
51439;BME280;38816;51.142;-0.974;2022-12-16T02:17:27;100108.22;;;-4.16;100.00
51439;BME280;38816;51.142;-0.974;2022-12-16T02:36:42;100121.19;;;-4.21;100.00
51439;BME280;38816;51.142;-0.974;2022-12-16T02:39:33;100128.06;;;-4.19;100.00
51439;BME280;38816;51.142;-0.974;2022-12-16T02:42:02;100131.03;;;-4.13;100.00
51439;BME280;38816;51.142;-0.974;2022-12-16T02:47:18;100141.84;;;-4.02;100.00
51439;BME280;38816;51.142;-0.974;2022-12-16T02:49:47;100128.06;;;-4.07;100.00
51439;BME280;38816;51.142;-0.974;2022-12-16T02:52:13;100132.31;;;-4.06;100.00
51439;BME280;38816;51.142;-0.974;2022-12-16T02:54:39;100148.25;;;-4.05;100.00
51439;BME280;38816;51.142;-0.974;2022-12-16T03:05:33;100140.28;;;-4.12;100.00
51439;BME280;38816;51.142;-0.974;2022-12-16T03:08:03;100141.50;;;-4.07;100.00
51439;BME280;38816;51.142;-0.974;2022-12-16T03:10:35;100141.72;;;-4.03;100.00
51439;BME280;38816;51.142;-0.974;2022-12-16T03:13:03;100143.25;;;-4.05;100.00
51439;BME280;38816;51.142;-0.974;2022-12-16T03:15:32;100151.34;;;-4.10;100.00
51439;BME280;38816;51.142;-0.974;2022-12-16T03:18:00;100148.69;;;-4.11;100.00
51439;BME280;38816;51.142;-0.974;2022-12-16T03:20:31;100152.22;;;-4.09;100.00
51439;BME280;38816;51.142;-0.974;2022-12-16T03:22:59;100142.81;;;-4.12;100.00
51439;BME280;38816;51.142;-0.974;2022-12-16T03:25:27;100150.78;;;-4.05;100.00
51439;BME280;38816;51.142;-0.974;2022-12-16T03:28:19;100149.38;;;-4.02;100.00
51439;BME280;38816;51.142;-0.974;2022-12-16T03:30:54;100147.41;;;-3.94;100.00
51439;BME280;38816;51.142;-0.974;2022-12-16T03:33:29;100152.53;;;-3.93;100.00
51439;BME280;38816;51.142;-0.974;2022-12-16T03:36:03;100146.41;;;-3.96;100.00
51439;BME280;38816;51.142;-0.974;2022-12-16T03:38:30;100156.69;;;-3.93;100.00
51439;BME280;38816;51.142;-0.974;2022-12-16T03:40:57;100142.69;;;-4.01;100.00
51439;BME280;38816;51.142;-0.974;2022-12-16T03:43:23;100159.88;;;-3.96;100.00
51439;BME280;38816;51.142;-0.974;2022-12-16T03:45:53;100158.31;;;-4.05;100.00
51439;BME280;38816;51.142;-0.974;2022-12-16T03:48:22;100144.22;;;-4.15;100.00
51439;BME280;38816;51.142;-0.974;2022-12-16T03:50:49;100162.25;;;-4.09;100.00
51439;BME280;38816;51.142;-0.974;2022-12-16T03:53:14;100159.59;;;-4.11;100.00
51439;BME280;38816;51.142;-0.974;2022-12-16T03:55:40;100151.97;;;-4.12;100.00
51439;BME280;38816;51.142;-0.974;2022-12-16T03:58:05;100167.03;;;-4.12;100.00
51439;BME280;38816;51.142;-0.974;2022-12-16T04:00:32;100163.75;;;-4.11;100.00
51439;BME280;38816;51.142;-0.974;2022-12-16T04:02:57;100162.78;;;-4.13;100.00
51439;BME280;38816;51.142;-0.974;2022-12-16T04:05:23;100155.03;;;-4.16;100.00
51439;BME280;38816;51.142;-0.974;2022-12-16T04:07:49;100149.03;;;-4.18;100.00
51439;BME280;38816;51.142;-0.974;2022-12-16T04:10:14;100151.41;;;-4.20;100.00
51439;BME280;38816;51.142;-0.974;2022-12-16T04:12:40;100148.47;;;-4.26;100.00
51439;BME280;38816;51.142;-0.974;2022-12-16T04:15:24;100160.78;;;-4.29;100.00
51439;BME280;38816;51.142;-0.974;2022-12-16T04:18:16;100152.56;;;-4.38;100.00
51439;BME280;38816;51.142;-0.974;2022-12-16T04:21:01;100159.66;;;-4.44;100.00
51439;BME280;38816;51.142;-0.974;2022-12-16T04:23:54;100147.31;;;-4.53;100.00
51439;BME280;38816;51.142;-0.974;2022-12-16T04:26:40;100152.09;;;-4.56;100.00
51439;BME280;38816;51.142;-0.974;2022-12-16T04:29:24;100158.84;;;-4.55;100.00
51439;BME280;38816;51.142;-0.974;2022-12-16T04:31:51;100158.97;;;-4.53;100.00
51439;BME280;38816;51.142;-0.974;2022-12-16T04:34:16;100167.38;;;-4.53;100.00
51439;BME280;38816;51.142;-0.974;2022-12-16T04:36:52;100161.91;;;-4.59;100.00
51439;BME280;38816;51.142;-0.974;2022-12-16T04:39:36;100162.97;;;-4.67;100.00
51439;BME280;38816;51.142;-0.974;2022-12-16T04:42:20;100158.16;;;-4.64;100.00
51439;BME280;38816;51.142;-0.974;2022-12-16T04:45:04;100170.16;;;-4.60;100.00
51439;BME280;38816;51.142;-0.974;2022-12-16T04:47:48;100171.69;;;-4.62;100.00
51439;BME280;38816;51.142;-0.974;2022-12-16T04:50:32;100176.41;;;-4.55;100.00
51439;BME280;38816;51.142;-0.974;2022-12-16T04:53:21;100176.88;;;-4.49;100.00
51439;BME280;38816;51.142;-0.974;2022-12-16T04:56:05;100178.97;;;-4.43;100.00
51439;BME280;38816;51.142;-0.974;2022-12-16T04:58:49;100181.56;;;-4.42;100.00
51439;BME280;38816;51.142;-0.974;2022-12-16T05:01:39;100189.09;;;-4.42;100.00
51439;BME280;38816;51.142;-0.974;2022-12-16T05:04:23;100170.22;;;-4.48;100.00
51439;BME280;38816;51.142;-0.974;2022-12-16T05:07:07;100189.19;;;-4.52;100.00
51439;BME280;38816;51.142;-0.974;2022-12-16T05:09:51;100196.81;;;-4.50;100.00
51439;BME280;38816;51.142;-0.974;2022-12-16T05:12:34;100199.41;;;-4.61;100.00
51439;BME280;38816;51.142;-0.974;2022-12-16T05:15:18;100198.28;;;-4.64;100.00
51439;BME280;38816;51.142;-0.974;2022-12-16T05:18:10;100212.47;;;-4.65;100.00
51439;BME280;38816;51.142;-0.974;2022-12-16T05:20:56;100205.63;;;-4.77;100.00
51439;BME280;38816;51.142;-0.974;2022-12-16T05:23:40;100216.69;;;-4.75;100.00
51439;BME280;38816;51.142;-0.974;2022-12-16T05:26:24;100214.16;;;-4.75;100.00
51439;BME280;38816;51.142;-0.974;2022-12-16T05:29:08;100217.31;;;-4.78;100.00
51439;BME280;38816;51.142;-0.974;2022-12-16T05:31:51;100218.03;;;-4.91;100.00
51439;BME280;38816;51.142;-0.974;2022-12-16T05:34:35;100218.56;;;-5.05;100.00
51439;BME280;38816;51.142;-0.974;2022-12-16T05:37:20;100217.50;;;-5.19;100.00
51439;BME280;38816;51.142;-0.974;2022-12-16T05:40:04;100224.81;;;-5.32;100.00
51439;BME280;38816;51.142;-0.974;2022-12-16T05:42:48;100218.50;;;-5.49;100.00
51439;BME280;38816;51.142;-0.974;2022-12-16T05:45:32;100228.00;;;-5.55;100.00
51439;BME280;38816;51.142;-0.974;2022-12-16T05:48:16;100228.53;;;-5.69;100.00
51439;BME280;38816;51.142;-0.974;2022-12-16T05:51:00;100238.06;;;-5.75;100.00
51439;BME280;38816;51.142;-0.974;2022-12-16T05:53:44;100214.34;;;-6.01;100.00
51439;BME280;38816;51.142;-0.974;2022-12-16T05:56:28;100230.13;;;-6.12;100.00
51439;BME280;38816;51.142;-0.974;2022-12-16T05:59:12;100232.38;;;-6.15;100.00
51439;BME280;38816;51.142;-0.974;2022-12-16T06:01:56;100237.00;;;-6.20;100.00
51439;BME280;38816;51.142;-0.974;2022-12-16T06:04:40;100252.38;;;-6.15;100.00
51439;BME280;38816;51.142;-0.974;2022-12-16T06:07:24;100253.63;;;-6.20;100.00
51439;BME280;38816;51.142;-0.974;2022-12-16T06:10:08;100248.75;;;-6.19;100.00
51439;BME280;38816;51.142;-0.974;2022-12-16T06:12:52;100247.38;;;-6.25;100.00
51439;BME280;38816;51.142;-0.974;2022-12-16T06:15:36;100243.25;;;-6.15;100.00
51439;BME280;38816;51.142;-0.974;2022-12-16T06:18:20;100251.97;;;-5.89;100.00
51439;BME280;38816;51.142;-0.974;2022-12-16T06:21:04;100259.09;;;-5.83;100.00
51439;BME280;38816;51.142;-0.974;2022-12-16T06:23:47;100246.97;;;-5.79;100.00
51439;BME280;38816;51.142;-0.974;2022-12-16T06:26:31;100252.56;;;-5.61;100.00
51439;BME280;38816;51.142;-0.974;2022-12-16T06:29:15;100233.16;;;-5.64;100.00
51439;BME280;38816;51.142;-0.974;2022-12-16T06:31:59;100246.03;;;-5.49;100.00
51439;BME280;38816;51.142;-0.974;2022-12-16T06:34:43;100237.81;;;-5.58;100.00
51439;BME280;38816;51.142;-0.974;2022-12-16T06:37:27;100257.66;;;-5.49;100.00
51439;BME280;38816;51.142;-0.974;2022-12-16T06:40:11;100242.25;;;-5.54;100.00
51439;BME280;38816;51.142;-0.974;2022-12-16T06:42:55;100259.53;;;-5.47;100.00
51439;BME280;38816;51.142;-0.974;2022-12-16T06:45:39;100246.03;;;-5.49;100.00
51439;BME280;38816;51.142;-0.974;2022-12-16T06:48:22;100246.16;;;-5.47;100.00
51439;BME280;38816;51.142;-0.974;2022-12-16T06:51:06;100252.53;;;-5.51;100.00
51439;BME280;38816;51.142;-0.974;2022-12-16T06:53:50;100258.94;;;-5.54;100.00
51439;BME280;38816;51.142;-0.974;2022-12-16T06:56:34;100276.22;;;-5.47;100.00
51439;BME280;38816;51.142;-0.974;2022-12-16T06:59:18;100283.22;;;-5.43;100.00
51439;BME280;38816;51.142;-0.974;2022-12-16T07:02:02;100285.59;;;-5.45;100.00
51439;BME280;38816;51.142;-0.974;2022-12-16T07:04:46;100290.97;;;-5.50;100.00
51439;BME280;38816;51.142;-0.974;2022-12-16T07:07:30;100286.88;;;-5.70;100.00
51439;BME280;38816;51.142;-0.974;2022-12-16T07:10:14;100300.78;;;-5.84;100.00
51439;BME280;38816;51.142;-0.974;2022-12-16T07:13:01;100302.91;;;-6.09;100.00
51439;BME280;38816;51.142;-0.974;2022-12-16T07:15:45;100295.88;;;-6.33;100.00
51439;BME280;38816;51.142;-0.974;2022-12-16T07:18:29;100295.91;;;-6.23;100.00
51439;BME280;38816;51.142;-0.974;2022-12-16T07:21:13;100303.66;;;-6.10;100.00
51439;BME280;38816;51.142;-0.974;2022-12-16T07:23:57;100305.19;;;-6.02;100.00
51439;BME280;38816;51.142;-0.974;2022-12-16T07:26:41;100299.38;;;-5.91;100.00
51439;BME280;38816;51.142;-0.974;2022-12-16T07:29:25;100311.78;;;-5.82;100.00
51439;BME280;38816;51.142;-0.974;2022-12-16T07:32:08;100318.16;;;-5.86;100.00
51439;BME280;38816;51.142;-0.974;2022-12-16T07:34:52;100313.91;;;-5.87;100.00
51439;BME280;38816;51.142;-0.974;2022-12-16T07:37:38;100300.03;;;-5.83;100.00
51439;BME280;38816;51.142;-0.974;2022-12-16T07:40:22;100303.53;;;-5.71;100.00
51439;BME280;38816;51.142;-0.974;2022-12-16T07:43:05;100319.19;;;-5.83;100.00
51439;BME280;38816;51.142;-0.974;2022-12-16T07:45:49;100299.91;;;-6.05;100.00
51439;BME280;38816;51.142;-0.974;2022-12-16T07:48:33;100319.44;;;-6.01;100.00
51439;BME280;38816;51.142;-0.974;2022-12-16T07:51:17;100304.06;;;-6.05;100.00
51439;BME280;38816;51.142;-0.974;2022-12-16T07:54:01;100319.66;;;-5.88;100.00
51439;BME280;38816;51.142;-0.974;2022-12-16T07:56:45;100317.94;;;-5.89;100.00
51439;BME280;38816;51.142;-0.974;2022-12-16T07:59:29;100321.31;;;-5.88;100.00
51439;BME280;38816;51.142;-0.974;2022-12-16T08:02:13;100329.44;;;-5.80;100.00
51439;BME280;38816;51.142;-0.974;2022-12-16T08:04:56;100323.03;;;-5.77;100.00
51439;BME280;38816;51.142;-0.974;2022-12-16T08:07:41;100326.69;;;-5.73;100.00
51439;BME280;38816;51.142;-0.974;2022-12-16T08:10:25;100333.19;;;-5.86;100.00
51439;BME280;38816;51.142;-0.974;2022-12-16T08:13:09;100336.59;;;-6.05;100.00
51439;BME280;38816;51.142;-0.974;2022-12-16T08:15:53;100342.94;;;-6.09;100.00
51439;BME280;38816;51.142;-0.974;2022-12-16T08:18:37;100351.59;;;-6.16;100.00
51439;BME280;38816;51.142;-0.974;2022-12-16T08:21:21;100360.66;;;-6.26;100.00
51439;BME280;38816;51.142;-0.974;2022-12-16T08:24:05;100355.38;;;-6.40;100.00
51439;BME280;38816;51.142;-0.974;2022-12-16T08:26:49;100360.44;;;-6.29;100.00
51439;BME280;38816;51.142;-0.974;2022-12-16T08:29:33;100359.03;;;-6.36;100.00
51439;BME280;38816;51.142;-0.974;2022-12-16T08:32:17;100363.13;;;-6.47;100.00
51439;BME280;38816;51.142;-0.974;2022-12-16T08:35:01;100354.84;;;-6.56;100.00
51439;BME280;38816;51.142;-0.974;2022-12-16T08:37:46;100374.00;;;-6.46;100.00
51439;BME280;38816;51.142;-0.974;2022-12-16T08:40:30;100373.59;;;-6.51;100.00
51439;BME280;38816;51.142;-0.974;2022-12-16T08:43:13;100374.28;;;-6.62;100.00
51439;BME280;38816;51.142;-0.974;2022-12-16T08:45:57;100375.31;;;-6.60;100.00
51439;BME280;38816;51.142;-0.974;2022-12-16T08:48:41;100378.59;;;-6.51;100.00
51439;BME280;38816;51.142;-0.974;2022-12-16T08:51:26;100372.88;;;-6.40;100.00
51439;BME280;38816;51.142;-0.974;2022-12-16T08:54:10;100379.97;;;-6.15;100.00
51439;BME280;38816;51.142;-0.974;2022-12-16T08:56:54;100378.13;;;-6.07;100.00
51439;BME280;38816;51.142;-0.974;2022-12-16T08:59:38;100382.75;;;-6.02;100.00
51439;BME280;38816;51.142;-0.974;2022-12-16T09:02:21;100386.25;;;-6.00;100.00
51439;BME280;38816;51.142;-0.974;2022-12-16T09:05:05;100388.63;;;-6.01;100.00
51439;BME280;38816;51.142;-0.974;2022-12-16T09:07:50;100380.25;;;-6.12;100.00
51439;BME280;38816;51.142;-0.974;2022-12-16T09:10:34;100398.00;;;-6.09;100.00
51439;BME280;38816;51.142;-0.974;2022-12-16T09:13:18;100388.34;;;-6.15;100.00
51439;BME280;38816;51.142;-0.974;2022-12-16T09:16:02;100395.50;;;-6.09;100.00
51439;BME280;38816;51.142;-0.974;2022-12-16T09:18:47;100403.66;;;-6.01;100.00
51439;BME280;38816;51.142;-0.974;2022-12-16T09:21:31;100399.31;;;-5.94;100.00
51439;BME280;38816;51.142;-0.974;2022-12-16T09:24:15;100405.44;;;-5.80;100.00
51439;BME280;38816;51.142;-0.974;2022-12-16T09:26:59;100398.06;;;-5.58;100.00
51439;BME280;38816;51.142;-0.974;2022-12-16T09:29:43;100395.53;;;-5.27;100.00
51439;BME280;38816;51.142;-0.974;2022-12-16T09:32:27;100387.00;;;-5.19;100.00
51439;BME280;38816;51.142;-0.974;2022-12-16T09:35:11;100406.16;;;-5.10;100.00
51439;BME280;38816;51.142;-0.974;2022-12-16T09:37:54;100406.06;;;-5.11;100.00
51439;BME280;38816;51.142;-0.974;2022-12-16T09:40:40;100410.69;;;-5.05;100.00
51439;BME280;38816;51.142;-0.974;2022-12-16T09:49:47;100416.53;;;-4.85;100.00
51439;BME280;38816;51.142;-0.974;2022-12-16T09:52:57;100427.81;;;-4.79;100.00
51439;BME280;38816;51.142;-0.974;2022-12-16T09:55:40;100416.41;;;-4.76;100.00
51439;BME280;38816;51.142;-0.974;2022-12-16T09:58:28;100416.88;;;-4.70;100.00
51439;BME280;38816;51.142;-0.974;2022-12-16T10:01:16;100434.75;;;-4.55;100.00
51439;BME280;38816;51.142;-0.974;2022-12-16T10:04:01;100433.78;;;-4.57;100.00
51439;BME280;38816;51.142;-0.974;2022-12-16T10:06:53;100430.78;;;-4.63;100.00
51439;BME280;38816;51.142;-0.974;2022-12-16T10:15:43;100445.34;;;-4.59;100.00
51439;BME280;38816;51.142;-0.974;2022-12-16T10:21:58;100450.72;;;-4.54;100.00
51439;BME280;38816;51.142;-0.974;2022-12-16T10:25:05;100450.06;;;-4.52;100.00
51439;BME280;38816;51.142;-0.974;2022-12-16T10:27:54;100459.41;;;-4.29;100.00
51439;BME280;38816;51.142;-0.974;2022-12-16T10:30:41;100441.88;;;-4.07;100.00
51439;BME280;38816;51.142;-0.974;2022-12-16T10:33:27;100457.75;;;-3.74;100.00
51439;BME280;38816;51.142;-0.974;2022-12-16T10:36:15;100448.22;;;-3.57;100.00
51439;BME280;38816;51.142;-0.974;2022-12-16T10:39:46;100458.34;;;-3.45;100.00
51439;BME280;38816;51.142;-0.974;2022-12-16T10:42:18;100455.75;;;-3.35;100.00
51439;BME280;38816;51.142;-0.974;2022-12-16T10:45:12;100447.16;;;-3.26;100.00
51439;BME280;38816;51.142;-0.974;2022-12-16T10:48:00;100447.09;;;-3.04;100.00
51439;BME280;38816;51.142;-0.974;2022-12-16T10:50:44;100431.34;;;-3.02;100.00
51439;BME280;38816;51.142;-0.974;2022-12-16T10:53:28;100432.72;;;-2.84;100.00
51439;BME280;38816;51.142;-0.974;2022-12-16T10:59:04;100424.72;;;-2.78;100.00
51439;BME280;38816;51.142;-0.974;2022-12-16T11:02:00;100435.75;;;-2.76;100.00
51439;BME280;38816;51.142;-0.974;2022-12-16T11:04:45;100439.13;;;-2.75;100.00
51439;BME280;38816;51.142;-0.974;2022-12-16T11:07:37;100430.28;;;-2.70;100.00
51439;BME280;38816;51.142;-0.974;2022-12-16T11:10:37;100430.19;;;-2.60;100.00
51439;BME280;38816;51.142;-0.974;2022-12-16T11:13:31;100435.00;;;-2.51;100.00
51439;BME280;38816;51.142;-0.974;2022-12-16T11:19:00;100425.03;;;-2.50;100.00
51439;BME280;38816;51.142;-0.974;2022-12-16T11:22:05;100425.25;;;-2.47;100.00
51439;BME280;38816;51.142;-0.974;2022-12-16T11:25:06;100433.66;;;-2.35;100.00
51439;BME280;38816;51.142;-0.974;2022-12-16T11:28:25;100436.19;;;-2.23;100.00
51439;BME280;38816;51.142;-0.974;2022-12-16T11:31:13;100427.75;;;-2.23;100.00
51439;BME280;38816;51.142;-0.974;2022-12-16T11:33:59;100431.47;;;-2.18;100.00
51439;BME280;38816;51.142;-0.974;2022-12-16T11:36:46;100430.91;;;-2.14;100.00
51439;BME280;38816;51.142;-0.974;2022-12-16T11:39:32;100430.66;;;-2.06;100.00
51439;BME280;38816;51.142;-0.974;2022-12-16T11:42:23;100435.25;;;-2.00;100.00
51439;BME280;38816;51.142;-0.974;2022-12-16T11:45:13;100437.84;;;-1.87;100.00
51439;BME280;38816;51.142;-0.974;2022-12-16T11:48:06;100434.78;;;-1.83;100.00
51439;BME280;38816;51.142;-0.974;2022-12-16T11:50:56;100432.97;;;-1.72;100.00
51439;BME280;38816;51.142;-0.974;2022-12-16T11:53:48;100427.50;;;-1.66;100.00
51439;BME280;38816;51.142;-0.974;2022-12-16T11:56:42;100431.19;;;-1.61;100.00
51439;BME280;38816;51.142;-0.974;2022-12-16T11:59:34;100435.78;;;-1.56;100.00
51439;BME280;38816;51.142;-0.974;2022-12-16T12:02:47;100425.22;;;-1.50;100.00
51439;BME280;38816;51.142;-0.974;2022-12-16T12:09:09;100438.31;;;-1.31;100.00
51439;BME280;38816;51.142;-0.974;2022-12-16T12:21:23;100430.13;;;-0.88;100.00
51439;BME280;38816;51.142;-0.974;2022-12-16T12:24:15;100432.97;;;-0.84;100.00
51439;BME280;38816;51.142;-0.974;2022-12-16T12:30:21;100429.28;;;-0.75;100.00
51439;BME280;38816;51.142;-0.974;2022-12-16T12:42:11;100424.41;;;-0.59;100.00
51439;BME280;38816;51.142;-0.974;2022-12-16T12:45:22;100424.63;;;-0.56;100.00
51439;BME280;38816;51.142;-0.974;2022-12-16T12:48:19;100421.16;;;-0.58;100.00
51439;BME280;38816;51.142;-0.974;2022-12-16T12:54:29;100421.16;;;-0.58;100.00
51439;BME280;38816;51.142;-0.974;2022-12-16T12:57:20;100426.19;;;-0.58;100.00
51439;BME280;38816;51.142;-0.974;2022-12-16T13:00:16;100427.94;;;-0.57;100.00
51439;BME280;38816;51.142;-0.974;2022-12-16T13:06:13;100416.09;;;-0.58;100.00
51439;BME280;38816;51.142;-0.974;2022-12-16T13:08:57;100433.56;;;-0.48;100.00
51439;BME280;38816;51.142;-0.974;2022-12-16T13:20:41;100422.63;;;-0.07;100.00
51439;BME280;38816;51.142;-0.974;2022-12-16T13:23:31;100421.25;;;-0.02;100.00
51439;BME280;38816;51.142;-0.974;2022-12-16T13:26:20;100429.47;;;0.09;100.00
51439;BME280;38816;51.142;-0.974;2022-12-16T13:35:03;100421.47;;;0.01;100.00
51439;BME280;38816;51.142;-0.974;2022-12-16T13:40:53;100417.34;;;0.03;100.00
51439;BME280;38816;51.142;-0.974;2022-12-16T13:43:50;100409.13;;;-0.08;100.00
51439;BME280;38816;51.142;-0.974;2022-12-16T13:58:43;100423.72;;;-0.04;100.00
51439;BME280;38816;51.142;-0.974;2022-12-16T14:01:42;100430.28;;;-0.06;100.00
51439;BME280;38816;51.142;-0.974;2022-12-16T14:04:37;100427.78;;;-0.06;100.00
51439;BME280;38816;51.142;-0.974;2022-12-16T14:07:24;100426.13;;;-0.05;100.00
51439;BME280;38816;51.142;-0.974;2022-12-16T14:10:39;100432.25;;;-0.02;100.00
51439;BME280;38816;51.142;-0.974;2022-12-16T14:13:40;100428.34;;;0.04;100.00
51439;BME280;38816;51.142;-0.974;2022-12-16T14:20:16;100445.84;;;0.14;100.00
51439;BME280;38816;51.142;-0.974;2022-12-16T14:22:59;100446.66;;;0.28;100.00
51439;BME280;38816;51.142;-0.974;2022-12-16T14:25:46;100442.28;;;0.25;100.00
51439;BME280;38816;51.142;-0.974;2022-12-16T14:28:38;100445.16;;;0.31;100.00
51439;BME280;38816;51.142;-0.974;2022-12-16T14:31:23;100453.28;;;0.25;100.00
51439;BME280;38816;51.142;-0.974;2022-12-16T14:34:16;100448.91;;;0.23;100.00
51439;BME280;38816;51.142;-0.974;2022-12-16T14:37:13;100443.78;;;0.08;100.00
51439;BME280;38816;51.142;-0.974;2022-12-16T14:39:57;100442.16;;;-0.05;100.00
51439;BME280;38816;51.142;-0.974;2022-12-16T14:42:42;100458.00;;;-0.07;100.00
51439;BME280;38816;51.142;-0.974;2022-12-16T14:45:33;100453.53;;;-0.11;100.00
51439;BME280;38816;51.142;-0.974;2022-12-16T14:48:46;100456.28;;;-0.21;100.00
51439;BME280;38816;51.142;-0.974;2022-12-16T14:51:47;100450.84;;;-0.41;100.00
51439;BME280;38816;51.142;-0.974;2022-12-16T14:54:37;100463.28;;;-0.44;100.00
51439;BME280;38816;51.142;-0.974;2022-12-16T14:57:27;100461.63;;;-0.57;100.00
51439;BME280;38816;51.142;-0.974;2022-12-16T15:03:15;100478.63;;;-0.67;100.00
51439;BME280;38816;51.142;-0.974;2022-12-16T15:06:04;100485.13;;;-0.71;100.00
51439;BME280;38816;51.142;-0.974;2022-12-16T15:09:00;100480.72;;;-0.73;100.00
51439;BME280;38816;51.142;-0.974;2022-12-16T15:11:45;100489.28;;;-0.71;100.00
51439;BME280;38816;51.142;-0.974;2022-12-16T15:14:36;100479.47;;;-0.80;100.00
51439;BME280;38816;51.142;-0.974;2022-12-16T15:17:24;100490.69;;;-0.88;100.00
51439;BME280;38816;51.142;-0.974;2022-12-16T15:20:16;100492.22;;;-1.04;100.00
51439;BME280;38816;51.142;-0.974;2022-12-16T15:23:01;100488.16;;;-1.27;100.00
51439;BME280;38816;51.142;-0.974;2022-12-16T15:25:54;100509.31;;;-1.24;100.00
51439;BME280;38816;51.142;-0.974;2022-12-16T15:28:43;100509.81;;;-1.42;100.00
51439;BME280;38816;51.142;-0.974;2022-12-16T15:31:32;100503.28;;;-1.51;100.00
51439;BME280;38816;51.142;-0.974;2022-12-16T15:37:30;100517.31;;;-1.67;100.00
51439;BME280;38816;51.142;-0.974;2022-12-16T15:40:25;100522.41;;;-1.79;100.00
51439;BME280;38816;51.142;-0.974;2022-12-16T15:43:25;100522.63;;;-1.87;100.00
51439;BME280;38816;51.142;-0.974;2022-12-16T15:46:25;100524.41;;;-1.98;100.00
51439;BME280;38816;51.142;-0.974;2022-12-16T15:52:30;100538.09;;;-2.18;100.00
51439;BME280;38816;51.142;-0.974;2022-12-16T15:58:33;100530.56;;;-2.30;100.00